Time;durP1;ratioP1;P1;durP2;ratioP2;P2;SDS_P1;SDS_P2;PMS_P1;PMS_P2;Temp;Humidity;BMP_temperature;BMP_pressure;BME280_temperature;BME280_humidity;BME280_pressure;Samples;Min_cycle;Max_cycle;Signal;HPM_P1;HPM_P2
2023/05/17 00:00:42;;;;;;;6.73;4.50;;;;;;;-141.97;100.00;47792.03;4998604;28;20179;-83
2023/05/17 00:03:08;;;;;;;8.63;4.03;;;;;;;-141.97;100.00;47788.19;4999315;28;20279;-82
2023/05/17 00:05:33;;;;;;;7.27;4.30;;;;;;;-141.97;100.00;47888.13;4997361;28;20206;-83
2023/05/17 00:07:58;;;;;;;9.37;4.40;;;;;;;-141.97;100.00;47772.78;4999009;28;20599;-83
2023/05/17 00:10:24;;;;;;;7.87;4.13;;;;;;;-141.97;100.00;47790.09;4999770;28;20230;-84
2023/05/17 00:12:49;;;;;;;8.27;4.30;;;;;;;-141.97;100.00;47768.94;5000141;28;20247;-83
2023/05/17 00:15:15;;;;;;;7.57;4.50;;;;;;;-141.97;100.00;47780.47;4999841;28;20199;-83
2023/05/17 00:17:41;;;;;;;8.77;4.90;;;;;;;-141.97;100.00;47792.03;5000003;28;20194;-83
2023/05/17 00:20:07;;;;;;;9.77;4.80;;;;;;;-141.97;100.00;47840.06;5005790;28;20176;-83
2023/05/17 00:22:32;;;;;;;10.20;4.80;;;;;;;-141.97;100.00;47770.88;5006532;28;20176;-83
2023/05/17 00:24:57;;;;;;;11.83;4.90;;;;;;;-141.97;100.00;47742.03;5006947;28;20167;-83
2023/05/17 00:27:23;;;;;;;12.40;5.87;;;;;;;-141.97;100.00;47797.78;5003638;28;20209;-83
2023/05/17 00:29:48;;;;;;;9.00;5.10;;;;;;;-141.97;100.00;47705.53;5002711;28;20210;-84
2023/05/17 00:32:13;;;;;;;10.40;4.70;;;;;;;-141.97;100.00;47801.63;5001251;28;20176;-83
2023/05/17 00:34:39;;;;;;;9.60;5.07;;;;;;;-141.97;100.00;47761.25;5003705;28;20198;-82
2023/05/17 00:37:04;;;;;;;8.70;4.90;;;;;;;-141.97;100.00;47768.94;5006155;28;20187;-83
2023/05/17 00:39:30;;;;;;;9.80;4.93;;;;;;;-141.97;100.00;47797.78;5000077;28;20600;-83
2023/05/17 00:41:55;;;;;;;9.50;5.20;;;;;;;-141.97;100.00;47753.56;4997230;28;20178;-84
2023/05/17 00:44:20;;;;;;;9.20;5.23;;;;;;;-141.97;100.00;47803.56;4996910;28;20275;-82
2023/05/17 00:46:46;;;;;;;9.10;5.27;;;;;;;-141.97;100.00;47822.78;4981653;28;20214;-83
2023/05/17 00:49:11;;;;;;;13.07;5.30;;;;;;;-141.97;100.00;47736.28;4984933;28;20191;-82
2023/05/17 00:51:38;;;;;;;9.53;5.30;;;;;;;-141.97;100.00;47790.09;4977092;28;20219;-83
2023/05/17 00:54:04;;;;;;;15.07;5.83;;;;;;;-141.97;100.00;47818.94;4979440;28;20168;-83
2023/05/17 00:56:30;;;;;;;12.03;5.90;;;;;;;-141.97;100.00;47772.78;4981257;28;20164;-85
2023/05/17 00:58:56;;;;;;;9.20;5.20;;;;;;;-141.97;100.00;47790.09;4983307;28;20187;-84
2023/05/17 01:01:21;;;;;;;8.27;5.37;;;;;;;-141.97;100.00;47761.25;4988701;28;20187;-83
2023/05/17 01:03:48;;;;;;;10.70;6.00;;;;;;;-141.97;100.00;47818.94;5000987;28;20298;-83
2023/05/17 01:06:13;;;;;;;12.37;6.30;;;;;;;-141.97;100.00;47770.88;4995996;28;20172;-83
2023/05/17 01:08:39;;;;;;;10.57;5.87;;;;;;;-141.97;100.00;47792.03;4996834;28;20166;-83
2023/05/17 01:11:30;;;;;;;10.30;6.10;;;;;;;-141.97;100.00;47807.41;4997366;28;20326;-82
2023/05/17 01:14:32;;;;;;;9.40;6.10;;;;;;;-141.97;100.00;47757.41;4979351;28;20194;-83
2023/05/17 01:17:12;;;;;;;12.83;6.43;;;;;;;-141.97;100.00;47742.03;4999714;28;20163;-83
2023/05/17 01:20:05;;;;;;;10.93;6.07;;;;;;;-141.97;100.00;47776.63;5001462;28;20189;-83
2023/05/17 01:22:50;;;;;;;14.17;6.73;;;;;;;-141.97;100.00;47813.16;4900736;29;20711;-84
2023/05/17 01:25:41;;;;;;;12.07;6.47;;;;;;;-141.97;100.00;47795.88;4902501;29;20190;-83
2023/05/17 01:28:08;;;;;;;11.17;6.80;;;;;;;-141.97;100.00;47768.94;4901219;29;20193;-84
2023/05/17 01:30:36;;;;;;;10.07;6.50;;;;;;;-141.97;100.00;47711.28;4900010;29;20755;-83
2023/05/17 01:33:02;;;;;;;14.23;6.87;;;;;;;-141.97;100.00;47797.78;4900746;29;20187;-83
2023/05/17 01:35:28;;;;;;;10.30;6.20;;;;;;;-141.97;100.00;47818.94;4900356;29;20175;-83
2023/05/17 01:37:54;;;;;;;13.53;6.60;;;;;;;-141.97;100.00;47763.19;4902729;29;20202;-83
2023/05/17 01:40:20;;;;;;;9.53;6.70;;;;;;;-141.97;100.00;47813.16;4903402;29;20197;-82
2023/05/17 01:42:52;;;;;;;12.97;6.50;;;;;;;-141.97;100.00;47838.16;4902223;29;20171;-83
2023/05/17 01:45:23;;;;;;;12.47;6.97;;;;;;;-141.97;100.00;47722.81;4902443;29;20215;-82
2023/05/17 01:48:25;;;;;;;11.40;6.70;;;;;;;-141.97;100.00;47853.53;4901028;29;20167;-83
2023/05/17 01:50:55;;;;;;;11.27;6.70;;;;;;;-141.97;100.00;47813.16;4901433;29;20211;-83
2023/05/17 01:53:32;;;;;;;13.80;6.70;;;;;;;-141.97;100.00;47730.50;4903477;29;20222;-83
2023/05/17 01:56:06;;;;;;;11.70;7.33;;;;;;;-141.97;100.00;47805.47;4902593;29;20206;-83
2023/05/17 01:58:44;;;;;;;12.53;6.83;;;;;;;-141.97;100.00;47811.25;4916026;28;20227;-82
2023/05/17 02:01:12;;;;;;;13.73;7.43;;;;;;;-141.97;100.00;47818.94;5014900;28;20685;-83
2023/05/17 02:03:37;;;;;;;13.73;7.70;;;;;;;-141.97;100.00;47761.25;5019705;28;20223;-82
2023/05/17 02:06:02;;;;;;;16.27;7.53;;;;;;;-141.97;100.00;47830.47;5020083;28;20147;-82
2023/05/17 02:08:28;;;;;;;12.90;7.50;;;;;;;-141.97;100.00;47780.47;5019308;28;20166;-82
2023/05/17 02:10:53;;;;;;;14.20;7.40;;;;;;;-141.97;100.00;47755.50;5018682;28;20167;-82
2023/05/17 02:13:19;;;;;;;11.23;7.53;;;;;;;-141.97;100.00;47759.34;5019423;28;20703;-83
2023/05/17 02:15:44;;;;;;;15.27;7.70;;;;;;;-141.97;100.00;47965.03;5018545;28;20171;-84
2023/05/17 02:18:10;;;;;;;13.33;7.60;;;;;;;-141.97;100.00;47959.25;5019845;28;20187;-83
2023/05/17 02:20:36;;;;;;;13.97;7.43;;;;;;;-141.97;100.00;47817.00;5020068;28;20185;-83
2023/05/17 02:23:01;;;;;;;13.47;8.20;;;;;;;-141.97;100.00;47799.72;5019524;28;20171;-84
2023/05/17 02:25:27;;;;;;;15.07;8.10;;;;;;;-141.97;100.00;47692.06;5020254;28;20167;-83
2023/05/17 02:27:52;;;;;;;13.50;8.17;;;;;;;-141.97;100.00;47778.56;5018723;28;20258;-83
2023/05/17 02:30:20;;;;;;;13.73;7.60;;;;;;;-141.97;100.00;47822.78;5018539;28;20167;-83
2023/05/17 02:32:46;;;;;;;14.77;7.90;;;;;;;-141.97;100.00;47915.03;5019298;28;20226;-83
2023/05/17 02:35:12;;;;;;;17.63;8.57;;;;;;;-141.97;100.00;47820.84;5019135;28;20257;-84
2023/05/17 02:37:37;;;;;;;16.00;8.20;;;;;;;-141.97;100.00;47820.84;5016651;28;20183;-83
2023/05/17 02:40:08;;;;;;;15.87;8.63;;;;;;;-141.97;100.00;47755.50;5016712;28;20163;-83
2023/05/17 02:42:33;;;;;;;16.60;8.37;;;;;;;-141.97;100.00;47807.41;5016803;28;20170;-83
2023/05/17 02:44:58;;;;;;;16.43;8.57;;;;;;;-141.97;100.00;47778.56;5016729;28;20547;-83
2023/05/17 02:47:24;;;;;;;17.87;9.07;;;;;;;-141.97;100.00;47709.38;5017295;28;20158;-83
2023/05/17 02:49:50;;;;;;;14.33;8.87;;;;;;;-141.97;100.00;47776.63;5017653;28;20241;-83
2023/05/17 02:52:15;;;;;;;14.87;8.23;;;;;;;-141.97;100.00;47884.28;5017404;28;20170;-83
2023/05/17 02:54:42;;;;;;;39.37;20.13;;;;;;;-141.97;100.00;47790.09;5010729;28;20186;-83
2023/05/17 02:57:08;;;;;;;62.97;32.33;;;;;;;-141.97;100.00;47813.16;5024567;28;20189;-83
2023/05/17 02:59:34;;;;;;;39.23;20.03;;;;;;;-141.97;100.00;47788.19;5019015;28;20662;-83
2023/05/17 03:01:59;;;;;;;27.63;15.63;;;;;;;-141.97;100.00;47822.78;5020441;28;20230;-83
2023/05/17 03:04:25;;;;;;;30.20;15.93;;;;;;;-141.97;100.00;47811.25;5020505;28;20201;-83
2023/05/17 03:06:50;;;;;;;28.47;14.00;;;;;;;-141.97;100.00;47799.72;5019301;28;20627;-83
2023/05/17 03:09:15;;;;;;;29.27;15.07;;;;;;;-141.97;100.00;47813.16;5020026;28;20174;-83
2023/05/17 03:11:41;;;;;;;25.07;14.43;;;;;;;-141.97;100.00;47799.72;5020286;28;20170;-83
2023/05/17 03:14:06;;;;;;;22.00;12.53;;;;;;;-141.97;100.00;47811.25;5020200;28;20707;-83
2023/05/17 03:16:31;;;;;;;21.87;12.23;;;;;;;-141.97;100.00;47843.91;5020055;28;20197;-83
2023/05/17 03:18:57;;;;;;;28.50;13.80;;;;;;;-141.97;100.00;47818.94;5002827;28;20209;-82
2023/05/17 03:21:22;;;;;;;24.57;13.53;;;;;;;-141.97;100.00;47818.94;5020336;28;20190;-84
2023/05/17 03:23:48;;;;;;;28.67;13.10;;;;;;;-141.97;100.00;47861.22;5020453;28;20162;-83
2023/05/17 03:26:13;;;;;;;21.77;11.70;;;;;;;-141.97;100.00;47947.72;4989046;28;20235;-83
2023/05/17 03:28:38;;;;;;;21.10;11.17;;;;;;;-141.97;100.00;47863.13;4997621;28;20179;-83
2023/05/17 03:31:04;;;;;;;20.93;10.87;;;;;;;-141.97;100.00;47745.88;4998445;28;20175;-83
2023/05/17 03:33:30;;;;;;;20.87;10.33;;;;;;;-141.97;100.00;47807.41;4998975;28;20171;-83
2023/05/17 03:35:56;;;;;;;16.97;9.83;;;;;;;-141.97;100.00;47820.84;4998841;28;20167;-83
2023/05/17 03:38:22;;;;;;;18.47;10.17;;;;;;;-141.97;100.00;47782.41;4981653;28;20243;-82
2023/05/17 03:40:47;;;;;;;20.47;10.23;;;;;;;-141.97;100.00;47736.28;4978278;28;20172;-83
2023/05/17 03:43:13;;;;;;;18.47;10.43;;;;;;;-141.97;100.00;47738.19;4979682;28;20187;-83
2023/05/17 03:45:38;;;;;;;20.70;10.60;;;;;;;-141.97;100.00;47803.56;5018168;28;20165;-83
2023/05/17 03:48:04;;;;;;;20.37;10.97;;;;;;;-141.97;100.00;47797.78;5004243;28;20172;-83
2023/05/17 03:50:31;;;;;;;18.00;10.20;;;;;;;-141.97;100.00;47907.34;4996640;28;20258;-82
2023/05/17 03:52:57;;;;;;;20.90;11.10;;;;;;;-141.97;100.00;47799.72;4995153;28;20659;-82
2023/05/17 03:55:22;;;;;;;21.60;10.93;;;;;;;-141.97;100.00;47826.63;4995917;28;20167;-82
2023/05/17 03:57:48;;;;;;;21.97;11.27;;;;;;;-141.97;100.00;47820.84;4995841;28;20195;-81
2023/05/17 04:00:20;;;;;;;20.77;11.57;;;;;;;-141.97;100.00;47770.88;4995682;28;20262;-83
2023/05/17 04:02:45;;;;;;;22.77;10.90;;;;;;;-141.97;100.00;47815.09;4995447;28;20256;-83
2023/05/17 04:05:12;;;;;;;19.90;10.40;;;;;;;-141.97;100.00;47809.31;4995808;28;20632;-82
2023/05/17 04:07:37;;;;;;;21.83;11.93;;;;;;;-141.97;100.00;47759.34;5005647;28;20155;-81
2023/05/17 04:10:04;;;;;;;19.13;11.07;;;;;;;-141.97;100.00;47830.47;5009944;28;20186;-82
2023/05/17 04:12:29;;;;;;;19.67;10.87;;;;;;;-141.97;100.00;47807.41;4977759;28;20613;-83
2023/05/17 04:14:55;;;;;;;22.83;10.57;;;;;;;-141.97;100.00;47970.78;4995441;28;20179;-82
2023/05/17 04:17:20;;;;;;;19.60;10.80;;;;;;;-141.97;100.00;47788.19;4993503;28;20190;-82
2023/05/17 04:19:46;;;;;;;22.63;10.90;;;;;;;-141.97;100.00;47824.69;4975177;28;20179;-83
2023/05/17 04:22:11;;;;;;;21.47;11.23;;;;;;;-141.97;100.00;47847.75;4975196;28;20187;-83
2023/05/17 04:24:36;;;;;;;19.27;10.73;;;;;;;-141.97;100.00;47834.31;4974399;28;20168;-82
2023/05/17 04:27:03;;;;;;;22.23;11.33;;;;;;;-141.97;100.00;47820.84;4975022;28;20203;-83
2023/05/17 04:29:28;;;;;;;17.40;10.60;;;;;;;-141.97;100.00;47768.94;4993327;28;20728;-82
2023/05/17 04:31:54;;;;;;;20.60;11.50;;;;;;;-141.97;100.00;47836.22;4993048;28;20175;-82
2023/05/17 04:34:21;;;;;;;22.20;11.13;;;;;;;-141.97;100.00;47788.19;4994356;28;20628;-83
2023/05/17 04:36:46;;;;;;;20.67;11.00;;;;;;;-141.97;100.00;47792.03;4995158;28;20162;-82
2023/05/17 04:39:12;;;;;;;25.63;10.70;;;;;;;-141.97;100.00;47792.03;4994565;28;20176;-82
2023/05/17 04:41:37;;;;;;;18.70;11.20;;;;;;;-141.97;100.00;47782.41;4994598;28;20168;-82
2023/05/17 04:44:03;;;;;;;20.73;11.00;;;;;;;-141.97;100.00;47788.19;4994715;28;20544;-83
2023/05/17 04:46:28;;;;;;;21.47;10.83;;;;;;;-141.97;100.00;47834.31;4994674;28;20554;-83
2023/05/17 04:48:55;;;;;;;22.43;11.27;;;;;;;-141.97;100.00;47815.09;4994628;28;20245;-83
2023/05/17 04:51:20;;;;;;;19.83;11.27;;;;;;;-141.97;100.00;47799.72;4992484;28;20182;-83
2023/05/17 04:53:45;;;;;;;26.07;11.60;;;;;;;-141.97;100.00;47805.47;4977874;28;20248;-83
2023/05/17 04:56:11;;;;;;;20.33;11.30;;;;;;;-141.97;100.00;47805.47;4977228;28;20169;-83
2023/05/17 04:58:36;;;;;;;23.93;11.97;;;;;;;-141.97;100.00;47834.31;4977508;28;20187;-83
2023/05/17 05:01:02;;;;;;;21.20;11.27;;;;;;;-141.97;100.00;47872.75;4975656;28;20618;-81
2023/05/17 05:03:27;;;;;;;26.43;11.80;;;;;;;-141.97;100.00;47793.94;4986345;28;20230;-82
2023/05/17 05:05:53;;;;;;;23.67;11.80;;;;;;;-141.97;100.00;47784.34;4993423;28;20692;-82
2023/05/17 05:08:18;;;;;;;24.30;12.03;;;;;;;-141.97;100.00;47926.56;4993398;28;20183;-82
2023/05/17 05:10:44;;;;;;;21.47;12.00;;;;;;;-141.97;100.00;47738.19;4994418;28;20254;-81
2023/05/17 05:13:10;;;;;;;25.50;12.97;;;;;;;-141.97;100.00;47788.19;4995366;28;20172;-81
2023/05/17 05:15:36;;;;;;;24.60;13.40;;;;;;;-141.97;100.00;47770.88;4994207;28;20549;-81
2023/05/17 05:18:02;;;;;;;22.63;11.57;;;;;;;-141.97;100.00;47776.63;4993757;28;20187;-81
2023/05/17 05:20:27;;;;;;;25.53;13.23;;;;;;;-141.97;100.00;47797.78;5002630;28;20186;-82
2023/05/17 05:22:52;;;;;;;22.70;12.57;;;;;;;-141.97;100.00;47726.66;4999396;28;20187;-82
2023/05/17 05:25:18;;;;;;;23.03;13.97;;;;;;;-141.97;100.00;47768.94;4987241;28;20304;-82
2023/05/17 05:27:46;;;;;;;42.63;26.67;;;;;;;-141.97;100.00;47753.56;4998251;28;20163;-83
2023/05/17 05:30:20;;;;;;;32.93;20.17;;;;;;;-141.97;100.00;47724.75;4998039;28;20219;-84
2023/05/17 05:32:46;;;;;;;25.63;13.87;;;;;;;-141.97;100.00;47801.63;5000370;28;20175;-84
2023/05/17 05:35:11;;;;;;;21.57;12.90;;;;;;;-141.97;100.00;47765.09;5007960;28;20268;-82
2023/05/17 05:37:36;;;;;;;18.90;11.80;;;;;;;-141.97;100.00;47772.78;5005781;28;20256;-83
2023/05/17 05:40:02;;;;;;;17.40;11.17;;;;;;;-141.97;100.00;47884.28;5001564;28;20175;-84
2023/05/17 05:42:28;;;;;;;16.80;11.03;;;;;;;-141.97;100.00;47792.03;4999781;28;20563;-84
2023/05/17 05:44:53;;;;;;;20.50;11.23;;;;;;;-141.97;100.00;47732.44;4998749;28;20217;-83
2023/05/17 05:47:19;;;;;;;18.60;11.67;;;;;;;-141.97;100.00;47569.06;4999949;28;20519;-83
2023/05/17 05:49:44;;;;;;;15.80;11.13;;;;;;;-141.97;100.00;47768.94;4999877;28;20151;-83
2023/05/17 05:52:10;;;;;;;19.27;11.90;;;;;;;-141.97;100.00;47961.19;5002983;28;20533;-83
2023/05/17 05:54:35;;;;;;;26.50;15.47;;;;;;;-141.97;100.00;47818.94;4998091;28;20203;-83
2023/05/17 05:57:00;;;;;;;18.63;12.20;;;;;;;-141.97;100.00;47780.47;4998459;28;20171;-83
2023/05/17 05:59:26;;;;;;;20.30;11.60;;;;;;;-141.97;100.00;47809.31;4998182;28;20237;-83
2023/05/17 06:01:52;;;;;;;18.47;12.13;;;;;;;-141.97;100.00;47726.66;5013437;28;20270;-82
2023/05/17 06:04:17;;;;;;;25.60;12.30;;;;;;;-141.97;100.00;47759.34;4996453;28;20324;-82
2023/05/17 06:06:42;;;;;;;23.67;12.17;;;;;;;-141.97;100.00;47826.63;4997906;28;20679;-82
2023/05/17 06:09:11;;;;;;;18.67;11.83;;;;;;;-141.97;100.00;47826.63;4997881;28;20481;-83
2023/05/17 06:11:37;;;;;;;22.73;12.20;;;;;;;-141.97;100.00;47870.81;5001296;28;20152;-83
2023/05/17 06:14:02;;;;;;;22.40;12.60;;;;;;;-141.97;100.00;47792.03;5000341;28;20163;-82
2023/05/17 06:16:28;;;;;;;21.33;12.93;;;;;;;-141.97;100.00;47768.94;4997354;28;20234;-82
2023/05/17 06:18:53;;;;;;;23.23;14.23;;;;;;;-141.97;100.00;47765.09;5013146;28;20259;-83
2023/05/17 06:21:19;;;;;;;22.43;12.40;;;;;;;-141.97;100.00;47747.81;5016778;28;20229;-83
2023/05/17 06:23:44;;;;;;;23.27;12.57;;;;;;;-141.97;100.00;47730.50;5022183;28;20186;-83
2023/05/17 06:26:10;;;;;;;20.27;11.80;;;;;;;-141.97;100.00;47738.19;4995025;28;20273;-83
2023/05/17 06:28:38;;;;;;;23.00;12.53;;;;;;;-141.97;100.00;47780.47;5003132;28;20163;-82
2023/05/17 06:31:03;;;;;;;22.60;12.53;;;;;;;-141.97;100.00;47866.97;5003383;28;20254;-83
2023/05/17 06:33:29;;;;;;;26.13;13.27;;;;;;;-141.97;100.00;47822.78;5004124;28;20684;-83
2023/05/17 06:35:55;;;;;;;18.97;12.30;;;;;;;-141.97;100.00;47709.38;5003167;28;20211;-82
2023/05/17 06:38:21;;;;;;;29.87;15.47;;;;;;;-141.97;100.00;47674.78;4983425;28;20198;-83
2023/05/17 06:40:46;;;;;;;24.00;13.30;;;;;;;-141.97;100.00;47776.63;4997829;28;20254;-82
2023/05/17 06:43:11;;;;;;;20.67;13.30;;;;;;;-141.97;100.00;47734.34;4996656;28;20219;-83
2023/05/17 06:45:37;;;;;;;21.23;12.23;;;;;;;-141.97;100.00;47793.94;4995424;28;20234;-84
2023/05/17 06:48:02;;;;;;;25.57;12.63;;;;;;;-141.97;100.00;47753.56;4978291;28;20284;-82
2023/05/17 06:50:29;;;;;;;20.30;12.50;;;;;;;-141.97;100.00;47790.09;4994442;28;20175;-83
2023/05/17 06:52:54;;;;;;;18.13;12.83;;;;;;;-141.97;100.00;47740.13;4995545;28;20194;-83
2023/05/17 06:55:20;;;;;;;25.10;14.37;;;;;;;-141.97;100.00;47742.03;4995512;28;20172;-83
2023/05/17 06:57:45;;;;;;;25.73;13.73;;;;;;;-141.97;100.00;47692.06;4996267;28;20191;-83
2023/05/17 07:00:11;;;;;;;29.10;18.70;;;;;;;-141.97;100.00;47780.47;4996355;28;20167;-85
2023/05/17 07:02:37;;;;;;;36.33;20.93;;;;;;;-141.97;100.00;47934.25;5012899;28;20254;-81
2023/05/17 07:05:04;;;;;;;36.53;23.70;;;;;;;-141.97;100.00;47734.34;5006449;28;20548;-83
2023/05/17 07:07:30;;;;;;;24.73;14.10;;;;;;;-141.97;100.00;47780.47;4996744;28;20523;-83
2023/05/17 07:09:55;;;;;;;23.77;14.13;;;;;;;-141.97;100.00;47780.47;4995665;28;20214;-81
2023/05/17 07:12:21;;;;;;;21.40;12.90;;;;;;;-141.97;100.00;47886.22;4995949;28;20171;-83
2023/05/17 07:14:46;;;;;;;27.17;13.53;;;;;;;-141.97;100.00;47793.94;4998297;28;20174;-83
2023/05/17 07:17:11;;;;;;;23.17;13.73;;;;;;;-141.97;100.00;47915.03;4995376;28;20596;-83
2023/05/17 07:19:37;;;;;;;21.10;13.40;;;;;;;-141.97;100.00;47780.47;5011119;28;20274;-83
2023/05/17 07:22:02;;;;;;;27.07;13.43;;;;;;;-141.97;100.00;47784.34;4984101;28;20229;-83
2023/05/17 07:24:28;;;;;;;22.63;13.10;;;;;;;-141.97;100.00;47911.19;4995653;28;20171;-83
2023/05/17 07:26:53;;;;;;;22.83;13.77;;;;;;;-141.97;100.00;47765.09;4985472;28;20235;-82
2023/05/17 07:29:19;;;;;;;25.07;13.87;;;;;;;-141.97;100.00;47688.22;4994458;28;20230;-82
2023/05/17 07:31:44;;;;;;;26.70;14.77;;;;;;;-141.97;100.00;47772.78;4995399;28;20280;-83
2023/05/17 07:34:09;;;;;;;29.00;15.50;;;;;;;-141.97;100.00;47768.94;4995241;28;20167;-83
2023/05/17 07:36:35;;;;;;;29.33;16.20;;;;;;;-141.97;100.00;47751.66;4995310;28;20247;-83
2023/05/17 07:39:00;;;;;;;26.73;15.07;;;;;;;-141.97;100.00;47801.63;4995060;28;20556;-83
2023/05/17 07:41:26;;;;;;;24.07;14.67;;;;;;;-141.97;100.00;47903.50;4995117;28;20179;-83
2023/05/17 07:43:51;;;;;;;27.60;15.13;;;;;;;-141.97;100.00;47780.47;4995039;28;20229;-83
2023/05/17 07:46:17;;;;;;;28.50;15.23;;;;;;;-141.97;100.00;47803.56;4995300;28;20172;-83
2023/05/17 07:48:42;;;;;;;26.07;13.97;;;;;;;-141.97;100.00;47763.19;5009506;28;20171;-83
2023/05/17 07:51:08;;;;;;;29.03;14.50;;;;;;;-141.97;100.00;47736.28;4994194;28;20203;-84
2023/05/17 07:53:33;;;;;;;28.60;15.43;;;;;;;-141.97;100.00;47628.63;4994243;28;20174;-83
2023/05/17 07:55:59;;;;;;;28.87;15.70;;;;;;;-141.97;100.00;47755.50;4993492;28;20191;-82
2023/05/17 07:58:24;;;;;;;32.10;16.17;;;;;;;-141.97;100.00;47930.41;4993144;28;20195;-82
2023/05/17 08:00:49;;;;;;;32.13;16.43;;;;;;;-141.97;100.00;47703.59;4992670;28;20194;-82
2023/05/17 08:03:15;;;;;;;35.03;16.70;;;;;;;-141.97;100.00;47807.41;4992986;28;20695;-83
2023/05/17 08:05:40;;;;;;;36.63;17.60;;;;;;;-141.97;100.00;47730.50;4994928;28;20171;-83
2023/05/17 08:08:06;;;;;;;31.00;16.50;;;;;;;-141.97;100.00;47936.19;4993216;28;20207;-82
2023/05/17 08:10:33;;;;;;;34.20;18.73;;;;;;;-141.97;100.00;47667.06;4992909;28;20178;-82
2023/05/17 08:12:58;;;;;;;29.97;17.20;;;;;;;-141.97;100.00;47788.19;4992946;28;20171;-82
2023/05/17 08:15:25;;;;;;;29.73;17.13;;;;;;;-141.97;100.00;47772.78;5000987;28;20171;-81
2023/05/17 08:17:50;;;;;;;33.57;18.03;;;;;;;-141.97;100.00;47880.44;5010081;28;20604;-82
2023/05/17 08:20:16;;;;;;;33.00;16.93;;;;;;;-141.97;100.00;47680.53;4999706;28;20197;-82
2023/05/17 08:22:41;;;;;;;32.30;17.43;;;;;;;-141.97;100.00;47795.88;4997285;28;20602;-82
2023/05/17 08:25:07;;;;;;;38.87;20.50;;;;;;;-141.97;100.00;47818.94;4993613;28;20194;-82
2023/05/17 08:27:32;;;;;;;37.80;20.90;;;;;;;-141.97;100.00;47788.19;4983483;28;20797;-83
2023/05/17 08:29:58;;;;;;;39.70;21.33;;;;;;;-141.97;100.00;47686.31;4992631;28;20163;-84
2023/05/17 08:32:24;;;;;;;29.83;17.90;;;;;;;-141.97;100.00;47795.88;5001773;28;20562;-82
2023/05/17 08:34:50;;;;;;;30.97;17.40;;;;;;;-141.97;100.00;47805.47;5008939;28;20333;-82
2023/05/17 08:37:17;;;;;;;45.57;25.57;;;;;;;-141.97;100.00;47676.69;4993296;28;20326;-81
2023/05/17 08:39:42;;;;;;;73.10;44.53;;;;;;;-141.97;100.00;47726.66;4993217;28;20164;-82
2023/05/17 08:42:08;;;;;;;70.97;40.70;;;;;;;-141.97;100.00;47701.69;4988742;28;20682;-81
2023/05/17 08:44:33;;;;;;;35.47;21.40;;;;;;;-141.97;100.00;47697.84;4991682;28;20171;-84
2023/05/17 08:47:00;;;;;;;42.50;26.67;;;;;;;-141.97;100.00;47701.69;4994158;28;20313;-83
2023/05/17 08:49:30;;;;;;;36.87;19.90;;;;;;;-141.97;100.00;47866.97;4993093;28;20603;-82
2023/05/17 08:51:59;;;;;;;38.73;20.90;;;;;;;-141.97;100.00;47809.31;4992329;28;20253;-82
2023/05/17 08:54:25;;;;;;;37.53;19.87;;;;;;;-141.97;100.00;47776.63;4993573;28;20163;-82
2023/05/17 08:56:55;;;;;;;47.37;21.93;;;;;;;-141.97;100.00;47795.88;4993667;28;20198;-83
2023/05/17 08:59:21;;;;;;;55.13;31.57;;;;;;;-141.97;100.00;47720.91;4996634;28;20222;-82
2023/05/17 09:01:50;;;;;;;59.67;31.10;;;;;;;-141.97;100.00;47738.19;4996043;28;20175;-82
2023/05/17 09:04:16;;;;;;;64.63;35.83;;;;;;;-141.97;100.00;47845.84;4993579;28;20766;-83
2023/05/17 09:06:43;;;;;;;60.60;32.47;;;;;;;-141.97;100.00;47809.31;4993183;28;20170;-83
2023/05/17 09:09:09;;;;;;;45.63;24.80;;;;;;;-141.97;100.00;47795.88;4993045;28;20158;-82
2023/05/17 09:11:34;;;;;;;41.60;21.57;;;;;;;-141.97;100.00;47811.25;4993395;28;20198;-83
2023/05/17 09:14:01;;;;;;;46.00;24.27;;;;;;;-141.97;100.00;47788.19;4993002;28;20650;-82
2023/05/17 09:16:28;;;;;;;52.67;28.17;;;;;;;-141.97;100.00;47711.28;4993266;28;20174;-83
2023/05/17 09:18:57;;;;;;;66.70;37.43;;;;;;;-141.97;100.00;47788.19;4993250;28;20225;-82
2023/05/17 09:21:24;;;;;;;60.43;35.17;;;;;;;-141.97;100.00;47707.44;5006949;28;20544;-82
2023/05/17 09:23:51;;;;;;;51.23;29.03;;;;;;;-141.97;100.00;47830.47;4978507;28;20173;-82
2023/05/17 09:26:17;;;;;;;56.10;28.17;;;;;;;-141.97;100.00;47815.09;4985657;28;20258;-82
2023/05/17 09:28:43;;;;;;;58.97;30.10;;;;;;;-141.97;100.00;47980.41;4992506;28;20168;-82
2023/05/17 09:31:12;;;;;;;62.10;33.33;;;;;;;-141.97;100.00;47768.94;4993237;28;20167;-81
2023/05/17 09:33:49;;;;;;;55.40;28.83;;;;;;;-141.97;100.00;47824.69;4994772;28;20178;-82
2023/05/17 09:36:23;;;;;;;60.63;32.57;;;;;;;-141.97;100.00;47849.69;4997569;28;20182;-82
2023/05/17 09:38:52;;;;;;;62.20;31.10;;;;;;;-141.97;100.00;47857.38;4993248;28;20194;-82
2023/05/17 09:41:17;;;;;;;63.97;33.87;;;;;;;-141.97;100.00;47926.56;4992826;28;20181;-83
2023/05/17 09:43:43;;;;;;;50.77;27.43;;;;;;;-141.97;100.00;47728.59;4992931;28;20553;-81
2023/05/17 09:46:08;;;;;;;52.10;31.37;;;;;;;-141.97;100.00;47811.25;4992742;28;20167;-82
2023/05/17 09:48:37;;;;;;;61.17;32.17;;;;;;;-141.97;100.00;47811.25;4994333;28;20234;-83
2023/05/17 09:51:05;;;;;;;53.90;28.40;;;;;;;-141.97;100.00;47995.78;5000870;28;20160;-83
2023/05/17 09:53:32;;;;;;;49.53;24.97;;;;;;;-141.97;100.00;47803.56;4998076;28;20171;-83
2023/05/17 09:56:04;;;;;;;46.30;25.37;;;;;;;-141.97;100.00;47843.91;4993250;28;20171;-82
2023/05/17 09:58:31;;;;;;;51.97;29.00;;;;;;;-141.97;100.00;47834.31;4995198;28;20196;-82
2023/05/17 10:01:00;;;;;;;56.17;30.27;;;;;;;-141.97;100.00;47842.00;5015594;28;20179;-83
2023/05/17 10:03:28;;;;;;;48.60;25.80;;;;;;;-141.97;100.00;47838.16;4996544;28;20223;-82
2023/05/17 10:05:57;;;;;;;53.63;27.27;;;;;;;-141.97;100.00;47711.28;4995470;28;20206;-82
2023/05/17 10:08:26;;;;;;;48.97;27.13;;;;;;;-141.97;100.00;47813.16;4992519;28;20168;-83
2023/05/17 10:10:55;;;;;;;45.87;25.63;;;;;;;-141.97;100.00;47834.31;4994198;28;20159;-83
2023/05/17 10:13:23;;;;;;;47.63;26.83;;;;;;;-141.97;100.00;47792.03;4992528;28;20632;-83
2023/05/17 10:15:52;;;;;;;46.57;26.20;;;;;;;-141.97;100.00;47838.16;4994695;28;20215;-84
2023/05/17 10:18:18;;;;;;;47.47;25.67;;;;;;;-141.97;100.00;47843.91;4996395;28;20196;-84
2023/05/17 10:20:44;;;;;;;50.00;27.53;;;;;;;-141.97;100.00;47799.72;5005215;28;20186;-83
2023/05/17 10:23:10;;;;;;;58.87;30.37;;;;;;;-141.97;100.00;47951.56;4999443;28;20178;-83
2023/05/17 10:25:37;;;;;;;66.50;32.47;;;;;;;-141.97;100.00;47770.88;4996388;28;20647;-82
2023/05/17 10:28:05;;;;;;;124.00;35.23;;;;;;;-141.97;100.00;47759.34;4985639;28;20249;-82
2023/05/17 10:30:32;;;;;;;70.30;37.93;;;;;;;-141.97;100.00;47793.94;4994639;28;20662;-82
2023/05/17 10:32:59;;;;;;;53.13;28.63;;;;;;;-141.97;100.00;47957.34;4995633;28;20250;-82
2023/05/17 10:35:26;;;;;;;44.33;25.07;;;;;;;-141.97;100.00;47834.31;4995591;28;20195;-83
2023/05/17 10:37:52;;;;;;;40.43;22.63;;;;;;;-141.97;100.00;47847.75;4995758;28;20198;-83
2023/05/17 10:40:18;;;;;;;39.07;21.53;;;;;;;-141.97;100.00;47788.19;4995947;28;20551;-83
2023/05/17 10:42:52;;;;;;;33.67;19.70;;;;;;;-141.97;100.00;47590.19;4994696;28;20185;-83
2023/05/17 10:45:24;;;;;;;36.57;19.57;;;;;;;-141.97;100.00;47803.56;4978106;28;20203;-83
2023/05/17 10:47:53;;;;;;;34.33;19.30;;;;;;;-141.97;100.00;47792.03;4996013;28;20218;-83
2023/05/17 10:50:24;;;;;;;33.03;19.83;;;;;;;-141.97;100.00;47807.41;4994138;28;20209;-83
2023/05/17 10:52:51;;;;;;;37.33;21.33;;;;;;;-141.97;100.00;47772.78;5000309;28;20174;-85
2023/05/17 10:55:18;;;;;;;33.13;20.50;;;;;;;-141.97;100.00;47818.94;4999481;28;20163;-85